Time;durP1;ratioP1;P1;durP2;ratioP2;P2;SDS_P1;SDS_P2;PMS_P1;PMS_P2;Temp;Humidity;BMP_temperature;BMP_pressure;BME280_temperature;BME280_humidity;BME280_pressure;Samples;Min_cycle;Max_cycle;Signal;HPM_P1;HPM_P2
2023/12/05 00:01:19;;;;;;;16.60;14.00;;;;;;;;;;85615;211;3032119;-40
2023/12/05 00:04:05;;;;;;;17.00;15.20;;;;;;;;;;85607;211;3027888;-39
2023/12/05 00:06:49;;;;;;;16.20;14.10;;;;;;;;;;85562;211;3027620;-40
2023/12/05 00:09:37;;;;;;;16.40;14.50;;;;;;;;;;85588;211;3032579;-38
2023/12/05 00:12:19;;;;;;;16.30;14.50;;;;;;;;;;85602;211;3031198;-38
2023/12/05 00:14:59;;;;;;;16.40;14.60;;;;;;;;;;85570;211;3028421;-39
2023/12/05 00:17:38;;;;;;;17.50;14.60;;;;;;;;;;85577;211;3027809;-38
2023/12/05 00:20:21;;;;;;;16.50;14.30;;;;;;;;;;85568;211;3030613;-39
2023/12/05 00:22:58;;;;;;;16.70;14.60;;;;;;;;;;85594;211;3031401;-38
2023/12/05 00:25:37;;;;;;;16.50;14.40;;;;;;;;;;85565;211;3027992;-38
2023/12/05 00:28:22;;;;;;;16.20;14.40;;;;;;;;;;85517;211;3027528;-39
2023/12/05 00:31:02;;;;;;;16.70;14.50;;;;;;;;;;85567;211;3030724;-40
2023/12/05 00:33:47;;;;;;;16.30;14.50;;;;;;;;;;85598;211;3031703;-40
2023/12/05 00:36:28;;;;;;;16.30;14.50;;;;;;;;;;85548;211;3029610;-40
2023/12/05 00:39:08;;;;;;;16.70;14.50;;;;;;;;;;85535;211;3027998;-41
2023/12/05 00:41:48;;;;;;;16.10;14.30;;;;;;;;;;85561;211;3030653;-41
2023/12/05 00:44:33;;;;;;;16.00;14.30;;;;;;;;;;85604;211;3032072;-42
2023/12/05 00:47:18;;;;;;;16.10;14.40;;;;;;;;;;85512;211;3028457;-41
2023/12/05 00:50:04;;;;;;;16.20;13.80;;;;;;;;;;85523;211;3027795;-41
2023/12/05 00:52:46;;;;;;;16.00;14.20;;;;;;;;;;85537;211;3031151;-41
2023/12/05 00:55:31;;;;;;;16.40;14.40;;;;;;;;;;85547;211;3031112;-41
2023/12/05 00:58:10;;;;;;;16.00;13.70;;;;;;;;;;85557;211;3027617;-38
2023/12/05 01:00:50;;;;;;;17.10;14.30;;;;;;;;;;85592;211;3027629;-41
2023/12/05 01:03:34;;;;;;;16.40;13.90;;;;;;;;;;85558;211;3031081;-41
2023/12/05 01:06:16;;;;;;;16.30;14.20;;;;;;;;;;85581;211;3031169;-41
2023/12/05 01:08:58;;;;;;;15.00;13.30;;;;;;;;;;85545;211;3028028;-41
2023/12/05 01:11:39;;;;;;;16.20;13.90;;;;;;;;;;85566;211;3027374;-41
2023/12/05 01:14:22;;;;;;;15.40;13.40;;;;;;;;;;85600;211;3030515;-41
2023/12/05 01:17:01;;;;;;;15.50;13.60;;;;;;;;;;85653;211;3031805;-41
2023/12/05 01:19:43;;;;;;;15.60;13.70;;;;;;;;;;85579;211;3029365;-40
2023/12/05 01:22:21;;;;;;;15.30;13.70;;;;;;;;;;85613;211;3027785;-40
2023/12/05 01:25:01;;;;;;;15.90;13.90;;;;;;;;;;85607;211;3030838;-40
2023/12/05 01:27:50;;;;;;;14.90;13.20;;;;;;;;;;85564;211;3031791;-40
2023/12/05 01:30:33;;;;;;;15.60;13.40;;;;;;;;;;85656;211;3034089;-40
2023/12/05 01:33:12;;;;;;;15.50;13.40;;;;;;;;;;85638;211;3027796;-40
2023/12/05 01:35:55;;;;;;;15.40;13.30;;;;;;;;;;85592;211;3031195;-40
2023/12/05 01:38:37;;;;;;;15.30;13.20;;;;;;;;;;85563;211;3031834;-38
2023/12/05 01:41:21;;;;;;;15.20;13.20;;;;;;;;;;85555;211;3028234;-38
2023/12/05 01:44:01;;;;;;;15.80;13.70;;;;;;;;;;85600;211;3027800;-37
2023/12/05 01:46:45;;;;;;;14.60;12.80;;;;;;;;;;85624;211;3031716;-37
2023/12/05 01:49:26;;;;;;;15.70;13.30;;;;;;;;;;85569;211;3031697;-39
2023/12/05 01:52:07;;;;;;;14.80;12.90;;;;;;;;;;85579;211;3027732;-38
2023/12/05 01:54:45;;;;;;;15.70;13.10;;;;;;;;;;85600;211;3027288;-39
2023/12/05 01:57:27;;;;;;;16.00;13.20;;;;;;;;;;85626;211;3030457;-38
2023/12/05 02:00:07;;;;;;;14.50;12.70;;;;;;;;;;85561;211;3031982;-37
2023/12/05 02:02:48;;;;;;;15.80;13.60;;;;;;;;;;85634;211;3028425;-38
2023/12/05 02:05:33;;;;;;;14.90;13.00;;;;;;;;;;85664;211;3027287;-37
2023/12/05 02:08:12;;;;;;;14.90;12.80;;;;;;;;;;85606;211;3030779;-38
2023/12/05 02:10:51;;;;;;;14.90;13.20;;;;;;;;;;85530;211;3031231;-38
2023/12/05 02:13:34;;;;;;;14.80;13.20;;;;;;;;;;85640;211;3028132;-39
2023/12/05 02:16:28;;;;;;;14.40;12.80;;;;;;;;;;85588;211;3027121;-39
2023/12/05 02:19:45;;;;;;;15.40;13.20;;;;;;;;;;85617;211;3031357;-38
2023/12/05 02:22:54;;;;;;;15.00;12.70;;;;;;;;;;85681;211;3038567;-38
2023/12/05 02:25:45;;;;;;;14.70;13.00;;;;;;;;;;85615;211;3028766;-39
2023/12/05 02:28:24;;;;;;;14.00;12.50;;;;;;;;;;85575;211;3027545;-40
2023/12/05 02:31:09;;;;;;;15.10;13.30;;;;;;;;;;85544;211;3030007;-38
2023/12/05 02:33:49;;;;;;;15.10;12.50;;;;;;;;;;84404;211;3031585;-39
2023/12/05 02:36:38;;;;;;;14.80;12.60;;;;;;;;;;85583;211;3028026;-38
2023/12/05 02:39:26;;;;;;;14.40;12.70;;;;;;;;;;85601;211;3027845;-42
2023/12/05 02:42:11;;;;;;;15.00;12.70;;;;;;;;;;85623;211;3030966;-40
2023/12/05 02:44:56;;;;;;;13.60;12.10;;;;;;;;;;85598;211;3031306;-41
2023/12/05 02:47:41;;;;;;;15.60;12.50;;;;;;;;;;85568;211;3028746;-43
2023/12/05 02:50:20;;;;;;;14.90;12.50;;;;;;;;;;85641;211;3027080;-38
2023/12/05 02:53:04;;;;;;;14.50;12.00;;;;;;;;;;85535;211;3030605;-41
2023/12/05 02:55:49;;;;;;;14.70;12.50;;;;;;;;;;85626;211;3032130;-40
2023/12/05 02:58:27;;;;;;;14.70;12.10;;;;;;;;;;85582;211;3028056;-41
2023/12/05 03:01:07;;;;;;;15.00;12.80;;;;;;;;;;85572;211;3027058;-39
2023/12/05 03:03:46;;;;;;;14.40;12.20;;;;;;;;;;85621;211;3030837;-40
2023/12/05 03:06:28;;;;;;;15.60;12.70;;;;;;;;;;85625;211;3032212;-39
2023/12/05 03:09:05;;;;;;;14.40;12.70;;;;;;;;;;85628;211;3028623;-39
2023/12/05 03:11:43;;;;;;;14.60;12.40;;;;;;;;;;85587;211;3027928;-39
2023/12/05 03:14:22;;;;;;;14.90;12.30;;;;;;;;;;85567;211;3031384;-38
2023/12/05 03:17:04;;;;;;;14.10;12.60;;;;;;;;;;85613;211;3032081;-38
2023/12/05 03:19:42;;;;;;;14.40;12.20;;;;;;;;;;85677;211;3028044;-38
2023/12/05 03:22:21;;;;;;;14.20;11.80;;;;;;;;;;85632;211;3027840;-39
2023/12/05 03:25:00;;;;;;;14.00;11.70;;;;;;;;;;85631;211;3031663;-40
2023/12/05 03:27:38;;;;;;;13.80;11.70;;;;;;;;;;85629;211;3032768;-39
2023/12/05 03:30:22;;;;;;;13.80;11.70;;;;;;;;;;85647;211;3028557;-39
2023/12/05 03:32:59;;;;;;;14.10;11.50;;;;;;;;;;85539;211;3027640;-40
2023/12/05 03:35:38;;;;;;;13.20;11.00;;;;;;;;;;85633;211;3030398;-41
2023/12/05 03:38:19;;;;;;;13.50;11.80;;;;;;;;;;85633;211;3031412;-40
2023/12/05 03:41:00;;;;;;;13.60;11.50;;;;;;;;;;85612;211;3030137;-39
2023/12/05 03:43:42;;;;;;;13.10;11.40;;;;;;;;;;85569;211;3027606;-39
2023/12/05 03:46:26;;;;;;;14.30;11.50;;;;;;;;;;85603;211;3031113;-40
2023/12/05 03:49:04;;;;;;;13.90;11.50;;;;;;;;;;85539;211;3031424;-39
2023/12/05 03:51:46;;;;;;;13.40;11.30;;;;;;;;;;85568;211;3028541;-39
2023/12/05 03:54:25;;;;;;;13.80;11.00;;;;;;;;;;85519;211;3034169;-40
2023/12/05 03:57:05;;;;;;;13.00;10.90;;;;;;;;;;85584;211;3030773;-40
2023/12/05 03:59:42;;;;;;;14.50;11.70;;;;;;;;;;85591;211;3031784;-40
2023/12/05 04:02:28;;;;;;;12.90;10.90;;;;;;;;;;85556;211;3028553;-40
2023/12/05 04:05:16;;;;;;;12.40;10.60;;;;;;;;;;85673;211;3033180;-39
2023/12/05 04:07:54;;;;;;;13.30;10.60;;;;;;;;;;85620;211;3031200;-40
2023/12/05 04:10:30;;;;;;;13.30;10.30;;;;;;;;;;85620;211;3031289;-40
2023/12/05 04:13:18;;;;;;;13.30;10.90;;;;;;;;;;85596;211;3027903;-39
2023/12/05 04:16:07;;;;;;;12.80;10.50;;;;;;;;;;85652;211;3027815;-38
2023/12/05 04:18:45;;;;;;;12.90;10.70;;;;;;;;;;85599;211;3031303;-37
2023/12/05 04:21:26;;;;;;;13.10;10.90;;;;;;;;;;85600;211;3031833;-38
2023/12/05 04:24:06;;;;;;;12.90;10.30;;;;;;;;;;85524;211;3028186;-38
2023/12/05 04:26:44;;;;;;;13.40;11.00;;;;;;;;;;85621;211;3027121;-39
2023/12/05 04:29:24;;;;;;;12.00;10.10;;;;;;;;;;85542;211;3030762;-38
2023/12/05 04:32:06;;;;;;;12.40;10.20;;;;;;;;;;85616;211;3031457;-40
2023/12/05 04:34:46;;;;;;;13.00;10.20;;;;;;;;;;85614;211;3028656;-40
2023/12/05 04:37:25;;;;;;;12.10;9.90;;;;;;;;;;85598;211;3027646;-39
2023/12/05 04:40:02;;;;;;;11.80;10.20;;;;;;;;;;85567;211;3030541;-37
2023/12/05 04:42:42;;;;;;;11.90;10.20;;;;;;;;;;85632;211;3031317;-38
2023/12/05 04:45:21;;;;;;;12.80;10.50;;;;;;;;;;85619;211;3028426;-40
2023/12/05 04:48:00;;;;;;;11.90;10.00;;;;;;;;;;85596;211;3027458;-39
2023/12/05 04:50:40;;;;;;;12.40;9.90;;;;;;;;;;85633;211;3030927;-39
2023/12/05 04:53:19;;;;;;;12.00;10.00;;;;;;;;;;85616;211;3031885;-41
2023/12/05 04:55:58;;;;;;;11.60;9.70;;;;;;;;;;85560;211;3028420;-40
2023/12/05 04:58:39;;;;;;;11.20;9.40;;;;;;;;;;85558;211;3027705;-40
2023/12/05 05:01:23;;;;;;;11.20;9.80;;;;;;;;;;85646;211;3030473;-41
2023/12/05 05:04:08;;;;;;;11.50;9.60;;;;;;;;;;85540;211;3031295;-41
2023/12/05 05:06:48;;;;;;;11.00;9.80;;;;;;;;;;85634;211;3034257;-40
2023/12/05 05:09:40;;;;;;;11.30;9.30;;;;;;;;;;85605;211;3029679;-39
2023/12/05 05:12:24;;;;;;;12.20;9.90;;;;;;;;;;85634;211;3030697;-38
2023/12/05 05:15:05;;;;;;;10.80;9.50;;;;;;;;;;85541;211;3031888;-39
2023/12/05 05:17:42;;;;;;;12.10;9.60;;;;;;;;;;85640;211;3030923;-40
2023/12/05 05:20:23;;;;;;;10.90;9.40;;;;;;;;;;85601;211;3026962;-40
2023/12/05 05:23:03;;;;;;;12.50;9.50;;;;;;;;;;85635;211;3030684;-38
2023/12/05 05:25:44;;;;;;;11.20;9.30;;;;;;;;;;85556;211;3031249;-38
2023/12/05 05:28:25;;;;;;;11.80;9.80;;;;;;;;;;85597;211;3028186;-38
2023/12/05 05:31:04;;;;;;;11.60;9.70;;;;;;;;;;85614;211;3027537;-38
2023/12/05 05:33:47;;;;;;;11.40;9.10;;;;;;;;;;85580;211;3031203;-39
2023/12/05 05:36:28;;;;;;;11.50;8.90;;;;;;;;;;85541;211;3031942;-38
2023/12/05 05:39:07;;;;;;;11.50;9.40;;;;;;;;;;85691;211;3028173;-38
2023/12/05 05:41:43;;;;;;;11.50;9.30;;;;;;;;;;85628;211;3027809;-38
2023/12/05 05:44:22;;;;;;;11.80;9.50;;;;;;;;;;85700;211;3031008;-39
2023/12/05 05:47:01;;;;;;;11.20;8.80;;;;;;;;;;85602;211;3032547;-39
2023/12/05 05:49:40;;;;;;;11.10;9.10;;;;;;;;;;85613;211;3028003;-38
2023/12/05 05:52:21;;;;;;;10.60;8.60;;;;;;;;;;85655;211;3027128;-37
2023/12/05 05:55:00;;;;;;;10.10;8.70;;;;;;;;;;85574;211;3030837;-38
2023/12/05 05:57:43;;;;;;;11.60;9.60;;;;;;;;;;85605;211;3038167;-38
2023/12/05 06:00:26;;;;;;;11.00;9.10;;;;;;;;;;85651;211;3028578;-38
2023/12/05 06:03:03;;;;;;;11.20;9.00;;;;;;;;;;85654;211;3027477;-39
2023/12/05 06:05:40;;;;;;;10.50;8.70;;;;;;;;;;85547;211;3030345;-38
2023/12/05 06:08:19;;;;;;;11.50;9.00;;;;;;;;;;85592;211;3031532;-39
2023/12/05 06:10:56;;;;;;;10.60;8.60;;;;;;;;;;85662;211;3028156;-38
2023/12/05 06:13:36;;;;;;;10.00;8.40;;;;;;;;;;85600;211;3027361;-38
2023/12/05 06:16:15;;;;;;;10.80;8.60;;;;;;;;;;85595;211;3030732;-39
2023/12/05 06:18:54;;;;;;;10.50;8.90;;;;;;;;;;85621;211;3031759;-38
2023/12/05 06:21:34;;;;;;;10.40;9.00;;;;;;;;;;85633;211;3028202;-39
2023/12/05 06:24:15;;;;;;;10.60;8.40;;;;;;;;;;85604;211;3027493;-39
2023/12/05 06:26:53;;;;;;;10.00;8.90;;;;;;;;;;85582;211;3031480;-38
2023/12/05 06:29:32;;;;;;;10.30;8.60;;;;;;;;;;85553;211;3031416;-38
2023/12/05 06:32:15;;;;;;;10.70;8.70;;;;;;;;;;85636;211;3028554;-38
2023/12/05 06:34:53;;;;;;;10.80;8.70;;;;;;;;;;85648;211;3027096;-38
2023/12/05 06:37:31;;;;;;;10.00;8.50;;;;;;;;;;85642;211;3030444;-38
2023/12/05 06:40:11;;;;;;;10.90;8.30;;;;;;;;;;85622;211;3031459;-39
2023/12/05 06:42:49;;;;;;;10.80;8.60;;;;;;;;;;85677;211;3028682;-38
2023/12/05 06:45:27;;;;;;;10.90;8.90;;;;;;;;;;85695;211;3027564;-38
2023/12/05 06:48:06;;;;;;;11.00;8.80;;;;;;;;;;85650;211;3030591;-39
2023/12/05 06:50:45;;;;;;;10.00;8.10;;;;;;;;;;85620;211;3031991;-38
2023/12/05 06:53:29;;;;;;;10.00;8.50;;;;;;;;;;85615;211;3027906;-39
2023/12/05 06:56:18;;;;;;;9.80;8.40;;;;;;;;;;85594;211;3027061;-39
2023/12/05 06:58:54;;;;;;;10.20;8.20;;;;;;;;;;85562;211;3036615;-38
2023/12/05 07:01:34;;;;;;;10.10;8.30;;;;;;;;;;85621;211;3031164;-38
2023/12/05 07:04:11;;;;;;;10.10;8.60;;;;;;;;;;85611;211;3028734;-38
2023/12/05 07:06:54;;;;;;;10.70;8.50;;;;;;;;;;85546;211;3027872;-39
2023/12/05 07:09:39;;;;;;;10.00;8.40;;;;;;;;;;85659;211;3037753;-40
2023/12/05 07:12:20;;;;;;;10.20;8.50;;;;;;;;;;85573;211;3031644;-40
2023/12/05 07:15:10;;;;;;;11.10;8.30;;;;;;;;;;85554;211;3028509;-42
2023/12/05 07:17:59;;;;;;;10.30;8.20;;;;;;;;;;85486;211;3027955;-39
2023/12/05 07:20:38;;;;;;;10.90;8.80;;;;;;;;;;85557;211;3031510;-39
2023/12/05 07:23:20;;;;;;;10.30;8.50;;;;;;;;;;85581;211;3033638;-39
2023/12/05 07:26:01;;;;;;;10.40;8.80;;;;;;;;;;85598;211;3027993;-37
2023/12/05 07:28:40;;;;;;;10.40;8.60;;;;;;;;;;85533;211;3027738;-41
2023/12/05 07:31:18;;;;;;;11.00;8.40;;;;;;;;;;85598;211;3030876;-38
2023/12/05 07:33:57;;;;;;;11.70;8.40;;;;;;;;;;85562;211;3031797;-40
2023/12/05 07:36:43;;;;;;;10.10;8.40;;;;;;;;;;85598;211;3028485;-39
2023/12/05 07:39:28;;;;;;;10.40;8.70;;;;;;;;;;85566;211;3027148;-40
2023/12/05 07:42:16;;;;;;;10.40;8.30;;;;;;;;;;85626;211;3030936;-39
2023/12/05 07:44:55;;;;;;;10.20;8.50;;;;;;;;;;85658;211;3031057;-39
2023/12/05 07:47:34;;;;;;;11.40;8.90;;;;;;;;;;85611;211;3028396;-39
2023/12/05 07:50:16;;;;;;;11.40;8.80;;;;;;;;;;85553;211;3027602;-40
2023/12/05 07:52:54;;;;;;;10.20;8.50;;;;;;;;;;85593;211;3030813;-40
2023/12/05 07:55:32;;;;;;;11.00;8.90;;;;;;;;;;85617;211;3031690;-39
2023/12/05 07:58:13;;;;;;;10.70;8.90;;;;;;;;;;85576;211;3028170;-39
2023/12/05 08:00:51;;;;;;;10.70;8.60;;;;;;;;;;85607;211;3034090;-39
2023/12/05 08:03:34;;;;;;;10.60;8.50;;;;;;;;;;85597;211;3031187;-38
2023/12/05 08:06:16;;;;;;;11.90;9.30;;;;;;;;;;85648;211;3032705;-39
2023/12/05 08:09:01;;;;;;;10.60;9.20;;;;;;;;;;85564;211;3028565;-39
2023/12/05 08:11:47;;;;;;;11.60;8.80;;;;;;;;;;85323;211;3027378;-42
2023/12/05 08:14:23;;;;;;;10.80;8.70;;;;;;;;;;85387;213;3030731;-42
2023/12/05 08:17:04;;;;;;;11.10;9.00;;;;;;;;;;85393;213;3032038;-42
2023/12/05 08:19:49;;;;;;;10.80;8.80;;;;;;;;;;85348;213;3028356;-42
2023/12/05 08:22:27;;;;;;;11.20;8.90;;;;;;;;;;85429;213;3028484;-41
2023/12/05 08:25:07;;;;;;;10.50;8.70;;;;;;;;;;85313;213;3030655;-44
2023/12/05 08:27:47;;;;;;;11.10;8.80;;;;;;;;;;85317;213;3032603;-43
2023/12/05 08:30:24;;;;;;;11.30;9.00;;;;;;;;;;85314;213;3028337;-44
2023/12/05 08:33:02;;;;;;;12.10;9.90;;;;;;;;;;85350;213;3027669;-45
2023/12/05 08:35:40;;;;;;;12.00;9.30;;;;;;;;;;85363;213;3030417;-43
2023/12/05 08:38:22;;;;;;;12.10;10.00;;;;;;;;;;85330;213;3031256;-42
2023/12/05 08:41:02;;;;;;;12.10;9.80;;;;;;;;;;85270;213;3028657;-42
2023/12/05 08:43:40;;;;;;;11.70;9.70;;;;;;;;;;85371;213;3027497;-44
2023/12/05 08:46:22;;;;;;;11.90;9.60;;;;;;;;;;85315;213;3030802;-39
2023/12/05 08:49:00;;;;;;;12.30;10.10;;;;;;;;;;85354;213;3031389;-51
2023/12/05 08:51:43;;;;;;;11.80;10.00;;;;;;;;;;85339;212;3033663;-47
2023/12/05 08:54:19;;;;;;;12.40;10.30;;;;;;;;;;85347;213;3027020;-44
2023/12/05 08:56:59;;;;;;;12.30;10.20;;;;;;;;;;85343;213;3030599;-44
2023/12/05 08:59:37;;;;;;;12.60;10.10;;;;;;;;;;85312;213;3031723;-42
2023/12/05 09:02:13;;;;;;;11.50;10.30;;;;;;;;;;85356;213;3034956;-43
2023/12/05 09:04:56;;;;;;;11.40;9.60;;;;;;;;;;85354;213;3027479;-49
2023/12/05 09:07:35;;;;;;;11.90;10.10;;;;;;;;;;85336;213;3031135;-43
2023/12/05 09:10:19;;;;;;;12.40;10.40;;;;;;;;;;85256;213;3032060;-38
2023/12/05 09:13:02;;;;;;;12.40;10.00;;;;;;;;;;85217;214;3028486;-41
2023/12/05 09:15:43;;;;;;;12.90;10.30;;;;;;;;;;85211;214;3027598;-45
2023/12/05 09:18:25;;;;;;;12.10;10.20;;;;;;;;;;85178;214;3030665;-39
2023/12/05 09:21:04;;;;;;;12.00;10.30;;;;;;;;;;85151;213;3032271;-41
2023/12/05 09:23:44;;;;;;;12.50;10.60;;;;;;;;;;85172;213;3028415;-49
2023/12/05 09:26:27;;;;;;;12.40;10.20;;;;;;;;;;85205;213;3027299;-45
2023/12/05 09:29:15;;;;;;;12.40;10.50;;;;;;;;;;85238;213;3031217;-45
2023/12/05 09:32:01;;;;;;;12.40;10.90;;;;;;;;;;85195;214;3032747;-48
2023/12/05 09:34:40;;;;;;;12.90;11.10;;;;;;;;;;85231;214;3028355;-41
2023/12/05 09:37:18;;;;;;;11.90;10.50;;;;;;;;;;85209;214;3027014;-41
2023/12/05 09:40:03;;;;;;;12.30;10.50;;;;;;;;;;85256;213;3030840;-44
2023/12/05 09:42:42;;;;;;;;;;;;;;;;;;85179;214;3032049;-45
2023/12/05 09:45:22;;;;;;;12.90;10.50;;;;;;;;;;85185;213;3028335;-44
2023/12/05 09:48:08;;;;;;;12.10;10.40;;;;;;;;;;85174;213;3027902;-42
2023/12/05 09:50:54;;;;;;;12.10;10.10;;;;;;;;;;85152;213;3031047;-42
2023/12/05 09:53:36;;;;;;;12.90;10.40;;;;;;;;;;85147;213;3038688;-45
2023/12/05 09:56:19;;;;;;;12.00;10.20;;;;;;;;;;85184;213;3028189;-43
2023/12/05 09:58:59;;;;;;;11.90;10.30;;;;;;;;;;85171;214;3027403;-44
2023/12/05 10:01:43;;;;;;;12.00;10.30;;;;;;;;;;85172;213;3033852;-44
2023/12/05 10:04:29;;;;;;;11.90;10.20;;;;;;;;;;85197;214;3031488;-42
2023/12/05 10:07:11;;;;;;;12.00;10.10;;;;;;;;;;85194;213;3029080;-43
2023/12/05 10:10:02;;;;;;;13.20;10.50;;;;;;;;;;85192;213;3027351;-41
2023/12/05 10:12:44;;;;;;;12.40;10.10;;;;;;;;;;85194;213;3030733;-42
2023/12/05 10:15:26;;;;;;;12.40;10.20;;;;;;;;;;85178;213;3031316;-42
2023/12/05 10:18:04;;;;;;;12.20;10.70;;;;;;;;;;85425;213;3028879;-42
2023/12/05 10:20:46;;;;;;;11.60;10.10;;;;;;;;;;85358;212;3027885;-42
2023/12/05 10:23:24;;;;;;;11.80;10.10;;;;;;;;;;85281;213;3031197;-42
2023/12/05 10:26:03;;;;;;;11.70;10.20;;;;;;;;;;85446;213;3031289;-41
2023/12/05 10:28:55;;;;;;;11.70;10.10;;;;;;;;;;85417;213;3028301;-44
2023/12/05 10:31:37;;;;;;;12.30;10.50;;;;;;;;;;85410;213;3026768;-43
2023/12/05 10:34:18;;;;;;;13.40;10.40;;;;;;;;;;84235;213;3037313;-42
2023/12/05 10:37:06;;;;;;;12.80;10.70;;;;;;;;;;85336;213;3031328;-41
2023/12/05 10:39:45;;;;;;;12.90;10.90;;;;;;;;;;85439;213;3029061;-42
2023/12/05 10:42:28;;;;;;;12.80;10.20;;;;;;;;;;85209;213;3027634;-42
2023/12/05 10:45:10;;;;;;;12.70;10.90;;;;;;;;;;85406;213;3031028;-42
2023/12/05 10:47:48;;;;;;;13.10;10.50;;;;;;;;;;85433;213;3032735;-41
2023/12/05 10:50:26;;;;;;;11.90;10.00;;;;;;;;;;85276;213;3028632;-42
2023/12/05 10:53:03;;;;;;;11.90;10.30;;;;;;;;;;85398;213;3027352;-41
2023/12/05 10:55:40;;;;;;;12.60;10.60;;;;;;;;;;85431;213;3031857;-41
2023/12/05 10:58:18;;;;;;;12.80;10.60;;;;;;;;;;85471;213;3031785;-41
2023/12/05 11:00:56;;;;;;;11.70;9.90;;;;;;;;;;85430;213;3029003;-43
2023/12/05 11:03:34;;;;;;;12.00;10.10;;;;;;;;;;85393;213;3027106;-41
2023/12/05 11:06:15;;;;;;;12.30;10.30;;;;;;;;;;85476;213;3031035;-43
2023/12/05 11:08:56;;;;;;;12.30;10.80;;;;;;;;;;85205;213;3031270;-43
2023/12/05 11:11:37;;;;;;;12.50;10.70;;;;;;;;;;85478;213;3030545;-38
2023/12/05 11:14:21;;;;;;;12.10;10.60;;;;;;;;;;85221;213;3027803;-41
2023/12/05 11:17:07;;;;;;;12.70;10.50;;;;;;;;;;85282;213;3032123;-36
2023/12/05 11:20:05;;;;;;;12.50;11.10;;;;;;;;;;85319;213;3031965;-42
2023/12/05 11:22:56;;;;;;;12.20;10.80;;;;;;;;;;85257;213;3027860;-38
2023/12/05 11:25:52;;;;;;;12.30;10.90;;;;;;;;;;85282;213;3035290;-39
2023/12/05 11:29:05;;;;;;;13.10;10.80;;;;;;;;;;85301;213;3029624;-39
2023/12/05 11:31:59;;;;;;;13.70;11.30;;;;;;;;;;85304;213;3031155;-38
2023/12/05 11:34:56;;;;;;;13.20;11.40;;;;;;;;;;85253;213;3028770;-39
2023/12/05 11:38:06;;;;;;;12.20;10.90;;;;;;;;;;85347;213;3027951;-39
2023/12/05 11:40:48;;;;;;;13.30;11.30;;;;;;;;;;85216;213;3030699;-36
2023/12/05 11:43:31;;;;;;;12.30;11.00;;;;;;;;;;85483;213;3031596;-37
2023/12/05 11:46:08;;;;;;;12.20;10.60;;;;;;;;;;85234;213;3034392;-43
2023/12/05 11:48:48;;;;;;;13.40;11.10;;;;;;;;;;85260;213;3027928;-40
2023/12/05 11:51:36;;;;;;;12.50;10.90;;;;;;;;;;85312;213;3031124;-39
2023/12/05 11:54:18;;;;;;;12.40;10.30;;;;;;;;;;85143;213;3031294;-41
2023/12/05 11:57:19;;;;;;;12.10;10.10;;;;;;;;;;85292;213;3028438;-38
2023/12/05 12:00:02;;;;;;;13.10;11.20;;;;;;;;;;85264;213;3027902;-41
2023/12/05 12:02:48;;;;;;;13.70;10.80;;;;;;;;;;85289;213;3031275;-39
2023/12/05 12:05:26;;;;;;;12.20;10.90;;;;;;;;;;85278;213;3032239;-41
2023/12/05 12:08:05;;;;;;;12.10;10.50;;;;;;;;;;85281;213;3028446;-40
2023/12/05 12:10:49;;;;;;;12.00;9.90;;;;;;;;;;85272;213;3027394;-40
2023/12/05 12:13:32;;;;;;;11.60;10.20;;;;;;;;;;85241;213;3031269;-43
2023/12/05 12:16:18;;;;;;;11.70;10.20;;;;;;;;;;85393;213;3031322;-40
2023/12/05 12:18:58;;;;;;;11.60;10.10;;;;;;;;;;85317;213;3027842;-40
2023/12/05 12:21:39;;;;;;;12.20;10.30;;;;;;;;;;85215;213;3028463;-40
2023/12/05 12:24:32;;;;;;;12.60;10.90;;;;;;;;;;85433;213;3032227;-41
2023/12/05 12:27:13;;;;;;;11.70;9.90;;;;;;;;;;85378;213;3039252;-43
2023/12/05 12:29:59;;;;;;;12.00;10.10;;;;;;;;;;85351;213;3028339;-44
2023/12/05 12:32:37;;;;;;;;;;;;;;;;;;85258;213;3027533;-43
2023/12/05 12:35:19;;;;;;;12.50;10.00;;;;;;;;;;85387;213;3030645;-41
2023/12/05 12:37:57;;;;;;;12.50;10.20;;;;;;;;;;85279;213;3031953;-42
2023/12/05 12:40:34;;;;;;;11.90;9.80;;;;;;;;;;85365;213;3028286;-43
2023/12/05 12:43:18;;;;;;;13.00;10.50;;;;;;;;;;85293;213;3027276;-42
2023/12/05 12:45:56;;;;;;;12.80;10.50;;;;;;;;;;85268;213;3030560;-42
2023/12/05 12:48:36;;;;;;;13.00;10.70;;;;;;;;;;85204;213;3031082;-41
2023/12/05 12:51:17;;;;;;;12.10;10.40;;;;;;;;;;85327;213;3028200;-44
2023/12/05 12:53:55;;;;;;;12.60;10.40;;;;;;;;;;85333;213;3028090;-42
2023/12/05 12:56:36;;;;;;;12.70;10.60;;;;;;;;;;85188;213;3030922;-42
2023/12/05 12:59:16;;;;;;;12.00;10.30;;;;;;;;;;85284;213;3032500;-41
2023/12/05 13:01:59;;;;;;;12.30;10.30;;;;;;;;;;85285;213;3028948;-43
2023/12/05 13:04:43;;;;;;;11.80;10.30;;;;;;;;;;85259;213;3027154;-43
2023/12/05 13:07:25;;;;;;;11.80;10.20;;;;;;;;;;85289;213;3030671;-42
2023/12/05 13:10:07;;;;;;;12.20;10.20;;;;;;;;;;85333;213;3031256;-43
2023/12/05 13:12:49;;;;;;;12.70;10.50;;;;;;;;;;85414;213;3028805;-43
2023/12/05 13:15:33;;;;;;;12.30;10.50;;;;;;;;;;85498;213;3027909;-42
2023/12/05 13:18:13;;;;;;;12.30;10.80;;;;;;;;;;85403;213;3030906;-42
2023/12/05 13:20:55;;;;;;;12.80;10.40;;;;;;;;;;85358;213;3031911;-43
2023/12/05 13:23:33;;;;;;;12.40;11.00;;;;;;;;;;85311;213;3029050;-41
2023/12/05 13:26:15;;;;;;;11.90;10.60;;;;;;;;;;85364;213;3027282;-41
2023/12/05 13:28:56;;;;;;;11.50;10.00;;;;;;;;;;85447;213;3037270;-41
2023/12/05 13:31:38;;;;;;;12.00;10.40;;;;;;;;;;85280;213;3031624;-41
2023/12/05 13:34:16;;;;;;;12.50;10.80;;;;;;;;;;85449;213;3027918;-43
2023/12/05 13:36:57;;;;;;;12.60;11.00;;;;;;;;;;85370;213;3027666;-41
2023/12/05 13:39:35;;;;;;;12.80;10.80;;;;;;;;;;85277;213;3031075;-41
2023/12/05 13:42:17;;;;;;;12.50;10.30;;;;;;;;;;85470;213;3031959;-42
2023/12/05 13:44:59;;;;;;;11.40;9.60;;;;;;;;;;85306;213;3028395;-44
2023/12/05 13:47:43;;;;;;;11.60;10.10;;;;;;;;;;85309;213;3028217;-42
2023/12/05 13:50:21;;;;;;;;;;;;;;;;;;85495;213;3031373;-42
2023/12/05 13:53:06;;;;;;;12.40;10.40;;;;;;;;;;85425;213;3032499;-43
2023/12/05 13:55:49;;;;;;;12.10;10.10;;;;;;;;;;85490;213;3028410;-42
2023/12/05 13:58:29;;;;;;;11.90;10.20;;;;;;;;;;85414;213;3027750;-41
2023/12/05 14:01:12;;;;;;;12.30;10.40;;;;;;;;;;85347;213;3030488;-41
2023/12/05 14:03:56;;;;;;;11.70;10.10;;;;;;;;;;85442;213;3031464;-41
2023/12/05 14:06:37;;;;;;;11.70;10.20;;;;;;;;;;85429;213;3028580;-41
2023/12/05 14:09:19;;;;;;;11.90;9.70;;;;;;;;;;85426;213;3027035;-36
2023/12/05 14:12:11;;;;;;;11.90;9.90;;;;;;;;;;85417;213;3030680;-38
2023/12/05 14:14:53;;;;;;;12.40;9.50;;;;;;;;;;85289;213;3031511;-40
2023/12/05 14:17:35;;;;;;;11.10;9.70;;;;;;;;;;85472;213;3028896;-38
2023/12/05 14:20:23;;;;;;;12.40;10.00;;;;;;;;;;85397;213;3033128;-38
2023/12/05 14:23:04;;;;;;;11.10;9.80;;;;;;;;;;85413;213;3031201;-38
2023/12/05 14:25:45;;;;;;;11.20;9.60;;;;;;;;;;85308;213;3031694;-39
2023/12/05 14:28:22;;;;;;;11.40;9.90;;;;;;;;;;85365;213;3028215;-43
2023/12/05 14:31:03;;;;;;;11.30;9.90;;;;;;;;;;85451;213;3027974;-37
2023/12/05 14:33:47;;;;;;;11.50;9.50;;;;;;;;;;85429;213;3030902;-38
2023/12/05 14:36:29;;;;;;;11.90;9.60;;;;;;;;;;85417;213;3031635;-38
2023/12/05 14:39:08;;;;;;;11.40;9.50;;;;;;;;;;85420;213;3028509;-43
2023/12/05 14:41:50;;;;;;;11.20;9.70;;;;;;;;;;85347;213;3027760;-47
2023/12/05 14:44:30;;;;;;;13.00;10.20;;;;;;;;;;85301;213;3031044;-40
2023/12/05 14:47:07;;;;;;;12.90;10.50;;;;;;;;;;85194;213;3031686;-38
2023/12/05 14:49:43;;;;;;;13.60;10.20;;;;;;;;;;85368;213;3028362;-39
2023/12/05 14:52:21;;;;;;;11.60;10.00;;;;;;;;;;85369;213;3027367;-38
2023/12/05 14:55:01;;;;;;;12.40;10.20;;;;;;;;;;85456;213;3030559;-41
2023/12/05 14:57:38;;;;;;;12.20;10.10;;;;;;;;;;85457;213;3031905;-36
2023/12/05 15:00:19;;;;;;;11.80;9.90;;;;;;;;;;85369;213;3028642;-39
2023/12/05 15:02:59;;;;;;;11.90;10.00;;;;;;;;;;85473;213;3027573;-36
2023/12/05 15:05:36;;;;;;;11.30;9.60;;;;;;;;;;85316;213;3031096;-36
2023/12/05 15:08:18;;;;;;;11.70;10.10;;;;;;;;;;85389;213;3033347;-38
2023/12/05 15:10:54;;;;;;;12.10;10.30;;;;;;;;;;85412;213;3028290;-38
2023/12/05 15:13:33;;;;;;;12.00;9.80;;;;;;;;;;85321;213;3028563;-38
2023/12/05 15:16:15;;;;;;;11.00;9.80;;;;;;;;;;85438;213;3031302;-39
2023/12/05 15:18:58;;;;;;;11.50;9.90;;;;;;;;;;85430;213;3031621;-38
2023/12/05 15:21:40;;;;;;;11.40;9.70;;;;;;;;;;85297;213;3035434;-38
2023/12/05 15:24:16;;;;;;;11.80;9.90;;;;;;;;;;85460;213;3028112;-38
2023/12/05 15:26:57;;;;;;;12.20;10.00;;;;;;;;;;85457;213;3030981;-38
2023/12/05 15:29:34;;;;;;;11.10;9.80;;;;;;;;;;85222;213;3031266;-34
2023/12/05 15:32:19;;;;;;;12.00;9.60;;;;;;;;;;85341;213;3027863;-34